createdAt,value
2023-01-09T00:01:51.339Z,6.40
2023-01-09T00:04:20.135Z,6.40
2023-01-09T00:06:54.358Z,6.30
2023-01-09T00:09:23.263Z,6.30
2023-01-09T00:11:51.912Z,6.30
2023-01-09T00:14:22.833Z,6.30
2023-01-09T00:16:51.647Z,6.30
2023-01-09T00:19:20.116Z,6.20
2023-01-09T00:21:48.568Z,6.20
2023-01-09T00:24:16.940Z,6.20
2023-01-09T00:26:45.507Z,6.20
2023-01-09T00:29:14.023Z,6.20
2023-01-09T00:31:43.845Z,6.20
2023-01-09T00:34:12.605Z,6.20
2023-01-09T00:36:41.072Z,6.20
2023-01-09T00:39:09.525Z,6.20
2023-01-09T00:41:40.661Z,6.20
2023-01-09T00:44:12.712Z,6.30
2023-01-09T00:46:46.425Z,6.30
2023-01-09T00:49:16.485Z,6.30
2023-01-09T00:51:45.053Z,6.30
2023-01-09T00:54:16.477Z,6.30
2023-01-09T00:56:45.250Z,6.20
2023-01-09T00:59:13.767Z,6.30
2023-01-09T01:01:42.548Z,6.30
2023-01-09T01:04:29.771Z,6.20
2023-01-09T01:07:16.268Z,6.20
2023-01-09T01:09:44.653Z,6.30
2023-01-09T01:12:13.012Z,6.30
2023-01-09T01:14:41.344Z,6.30
2023-01-09T01:17:09.821Z,6.20
2023-01-09T01:19:39.550Z,6.20
2023-01-09T01:22:07.978Z,6.30
2023-01-09T01:24:36.336Z,6.30
2023-01-09T01:27:05.236Z,6.30
2023-01-09T01:29:34.032Z,6.30
2023-01-09T01:32:02.470Z,6.40
2023-01-09T01:34:31.215Z,6.40
2023-01-09T01:37:01.099Z,6.40
2023-01-09T01:39:29.583Z,6.50
2023-01-09T01:41:58.131Z,6.50
2023-01-09T01:45:01.986Z,6.50
2023-01-09T01:47:39.563Z,6.50
2023-01-09T01:50:14.206Z,6.60
2023-01-09T01:52:46.743Z,6.60
2023-01-09T01:55:16.808Z,6.60
2023-01-09T01:57:49.513Z,6.60
2023-01-09T02:00:21.738Z,6.70
2023-01-09T02:02:50.175Z,6.70
2023-01-09T02:05:18.724Z,6.60
2023-01-09T02:07:48.431Z,6.60
2023-01-09T02:10:17.264Z,6.60
2023-01-09T02:12:45.648Z,6.50
2023-01-09T02:15:16.297Z,6.50
2023-01-09T02:18:16.604Z,6.50
2023-01-09T02:20:56.590Z,6.60
2023-01-09T02:23:59.244Z,6.60
2023-01-09T02:26:42.097Z,6.60
2023-01-09T02:29:42.311Z,6.60
2023-01-09T02:32:22.867Z,6.70
2023-01-09T02:35:01.363Z,6.60
2023-01-09T02:37:39.073Z,6.60
2023-01-09T02:40:17.468Z,6.60
2023-01-09T02:42:47.353Z,6.60
2023-01-09T02:45:16.051Z,6.60
2023-01-09T02:47:47.337Z,6.60
2023-01-09T02:50:19.525Z,6.60
2023-01-09T02:53:24.055Z,6.60
2023-01-09T02:56:07.633Z,6.70
2023-01-09T02:58:53.770Z,6.80
2023-01-09T03:01:28.746Z,6.80
2023-01-09T03:04:06.406Z,6.90
2023-01-09T03:06:44.308Z,6.90
2023-01-09T03:09:16.907Z,6.90
2023-01-09T03:11:51.497Z,7.00
2023-01-09T03:14:22.988Z,7.00
2023-01-09T03:16:56.665Z,7.00
2023-01-09T03:19:31.424Z,7.00
2023-01-09T03:22:00.579Z,7.00
2023-01-09T03:24:28.943Z,7.00
2023-01-09T03:26:57.344Z,6.90
2023-01-09T03:29:27.426Z,6.90
2023-01-09T03:31:56.973Z,6.90
2023-01-09T03:34:26.710Z,6.90
2023-01-09T03:36:55.033Z,6.90
2023-01-09T03:39:23.459Z,7.00
2023-01-09T03:41:51.799Z,7.00
2023-01-09T03:44:20.196Z,7.10
2023-01-09T03:46:50.355Z,7.10
2023-01-09T03:49:19.243Z,7.00
2023-01-09T03:51:49.035Z,7.00
2023-01-09T03:54:17.464Z,6.90
2023-01-09T03:56:45.998Z,6.90
2023-01-09T03:59:14.324Z,6.90
2023-01-09T04:01:42.736Z,6.90
2023-01-09T04:04:11.398Z,6.90
2023-01-09T04:06:39.798Z,7.00
2023-01-09T04:09:09.746Z,7.10
2023-01-09T04:11:38.154Z,7.10
2023-01-09T04:14:06.812Z,7.10
2023-01-09T04:16:35.409Z,7.10
2023-01-09T04:19:03.941Z,7.10
2023-01-09T04:21:32.423Z,7.10
2023-01-09T04:24:00.840Z,7.10
2023-01-09T04:26:30.700Z,7.10
2023-01-09T04:28:59.106Z,7.10
2023-01-09T04:31:27.592Z,7.10
2023-01-09T04:33:55.908Z,7.10
2023-01-09T04:36:24.256Z,7.20
2023-01-09T04:38:52.709Z,7.20
2023-01-09T04:41:35.731Z,7.20
2023-01-09T04:44:05.618Z,7.20
2023-01-09T04:46:34.265Z,7.20
2023-01-09T04:49:02.796Z,7.20
2023-01-09T04:51:31.220Z,7.20
2023-01-09T04:53:59.655Z,7.20
2023-01-09T04:56:28.092Z,7.20
2023-01-09T04:58:56.481Z,7.30
2023-01-09T05:01:26.898Z,7.20
2023-01-09T05:03:55.484Z,7.20
2023-01-09T05:06:23.955Z,7.30
2023-01-09T05:08:52.427Z,7.30
2023-01-09T05:11:21.499Z,7.30
2023-01-09T05:13:49.842Z,7.30
2023-01-09T05:16:18.310Z,7.30
2023-01-09T05:18:49.837Z,7.30
2023-01-09T05:21:18.262Z,7.30
2023-01-09T05:23:46.699Z,7.30
2023-01-09T05:26:15.024Z,7.30
2023-01-09T05:28:43.446Z,7.40
2023-01-09T05:31:11.786Z,7.40
2023-01-09T05:33:40.219Z,7.40
2023-01-09T05:36:10.599Z,7.50
2023-01-09T05:38:39.116Z,7.50
2023-01-09T05:41:07.823Z,7.50
2023-01-09T05:43:36.589Z,7.60
2023-01-09T05:46:05.172Z,7.70
2023-01-09T05:48:33.669Z,7.70
2023-01-09T05:51:02.158Z,7.70
2023-01-09T05:53:31.940Z,7.80
2023-01-09T05:56:00.347Z,7.80
2023-01-09T05:58:28.791Z,7.80
2023-01-09T06:00:57.556Z,7.80
2023-01-09T06:03:26.037Z,7.80
2023-01-09T06:05:54.636Z,7.80
2023-01-09T06:08:23.035Z,7.80
2023-01-09T06:10:53.038Z,7.80
2023-01-09T06:13:21.460Z,7.70
2023-01-09T06:15:50.166Z,7.70
2023-01-09T06:18:18.722Z,7.70
2023-01-09T06:20:47.200Z,7.70
2023-01-09T06:23:15.681Z,7.70
2023-01-09T06:25:44.141Z,7.70
2023-01-09T06:28:13.850Z,7.60
2023-01-09T06:30:42.311Z,7.60
2023-01-09T06:33:11.427Z,7.60
2023-01-09T06:35:39.863Z,7.60
2023-01-09T06:38:08.252Z,7.60
2023-01-09T06:40:36.747Z,7.60
2023-01-09T06:43:05.328Z,7.70
2023-01-09T06:45:35.441Z,7.70
2023-01-09T06:48:03.903Z,7.60
2023-01-09T06:50:32.602Z,7.70
2023-01-09T06:53:01.256Z,7.70
2023-01-09T06:55:31.013Z,7.70
2023-01-09T06:57:59.361Z,7.80
2023-01-09T07:00:28.091Z,7.70
2023-01-09T07:02:58.021Z,7.80
2023-01-09T07:05:26.521Z,7.80
2023-01-09T07:07:54.906Z,7.70
2023-01-09T07:10:23.420Z,7.70
2023-01-09T07:12:51.799Z,7.70
2023-01-09T07:15:20.131Z,7.60
2023-01-09T07:17:52.061Z,7.60
2023-01-09T07:20:22.142Z,7.60
2023-01-09T07:22:50.533Z,7.60
2023-01-09T07:25:19.049Z,7.50
2023-01-09T07:27:47.474Z,7.50
2023-01-09T07:30:16.818Z,7.50
2023-01-09T07:32:45.298Z,7.40
2023-01-09T07:35:13.679Z,7.40
2023-01-09T07:37:43.422Z,7.40
2023-01-09T07:40:13.658Z,7.40
2023-01-09T07:42:42.192Z,7.40
2023-01-09T07:45:11.316Z,7.40
2023-01-09T07:47:42.172Z,7.40
2023-01-09T07:50:11.592Z,7.40
2023-01-09T07:52:40.032Z,7.40
2023-01-09T08:01:45.263Z,7.50
2023-01-09T08:04:14.231Z,7.50
2023-01-09T08:06:42.627Z,7.50
2023-01-09T08:09:11.087Z,7.50
2023-01-09T08:11:39.596Z,7.50
2023-01-09T08:14:08.070Z,7.50
2023-01-09T08:16:37.686Z,7.50
2023-01-09T08:19:07.827Z,7.60
2023-01-09T08:21:37.329Z,7.60
2023-01-09T08:24:06.260Z,7.60
2023-01-09T08:26:34.658Z,7.60
2023-01-09T08:29:03.073Z,7.60
2023-01-09T08:31:31.544Z,7.60
2023-01-09T08:33:59.901Z,7.70
2023-01-09T08:36:29.741Z,7.60
2023-01-09T08:38:58.209Z,7.60
2023-01-09T08:41:44.292Z,7.50
2023-01-09T08:44:29.365Z,7.40
2023-01-09T08:47:07.087Z,7.40
2023-01-09T08:49:35.934Z,7.40
2023-01-09T08:52:06.941Z,7.50
2023-01-09T08:54:36.869Z,7.50
2023-01-09T08:57:05.485Z,7.40
2023-01-09T08:59:33.919Z,7.40
2023-01-09T09:02:02.404Z,7.30
2023-01-09T09:04:31.012Z,7.20
2023-01-09T09:06:59.415Z,7.30
2023-01-09T09:09:29.181Z,7.40
2023-01-09T09:11:57.579Z,7.40
2023-01-09T09:14:48.827Z,7.60
2023-01-09T09:17:17.142Z,7.60
2023-01-09T09:19:45.483Z,7.60
2023-01-09T09:22:14.914Z,7.60
2023-01-09T09:24:44.632Z,7.60
2023-01-09T09:27:13.051Z,7.60
2023-01-09T09:29:41.422Z,7.50
2023-01-09T09:32:09.780Z,7.60
2023-01-09T09:34:38.291Z,7.60
2023-01-09T09:37:07.173Z,7.70
2023-01-09T09:39:35.546Z,7.80
2023-01-09T09:42:41.390Z,7.80
2023-01-09T09:45:22.704Z,7.80
2023-01-09T09:48:00.464Z,7.90
2023-01-09T09:50:47.748Z,7.90
2023-01-09T09:53:22.902Z,8.00
2023-01-09T09:55:52.274Z,8.00
2023-01-09T09:58:28.253Z,8.20
2023-01-09T10:00:59.593Z,8.20
2023-01-09T10:03:34.188Z,8.30
2023-01-09T10:06:10.033Z,8.20
2023-01-09T10:08:46.729Z,8.30
2023-01-09T10:11:20.875Z,8.30
2023-01-09T10:14:16.074Z,8.40
2023-01-09T10:17:11.283Z,8.40
2023-01-09T10:19:51.381Z,8.40
2023-01-09T10:22:28.407Z,8.40
2023-01-09T10:25:10.480Z,8.40
2023-01-09T10:27:55.819Z,8.30
2023-01-09T10:30:35.195Z,8.30
2023-01-09T10:33:17.982Z,8.50
2023-01-09T10:36:14.801Z,8.70
2023-01-09T10:38:47.472Z,8.80
2023-01-09T10:41:22.575Z,8.90
2023-01-09T10:43:56.928Z,9.00
2023-01-09T10:46:32.415Z,9.20
2023-01-09T10:49:03.199Z,9.30
2023-01-09T10:51:39.568Z,9.20
2023-01-09T10:54:15.504Z,9.10
2023-01-09T10:56:48.641Z,8.90
2023-01-09T10:59:17.010Z,8.70
2023-01-09T11:01:46.838Z,8.80
2023-01-09T11:04:25.803Z,8.90
2023-01-09T11:06:59.798Z,8.80
2023-01-09T11:09:28.301Z,8.70
2023-01-09T11:11:56.739Z,8.70
2023-01-09T11:14:31.384Z,8.70
2023-01-09T11:17:04.572Z,8.60
2023-01-09T11:19:34.087Z,8.60
2023-01-09T11:22:10.751Z,8.70
2023-01-09T11:24:39.120Z,8.60
2023-01-09T11:27:33.968Z,8.50
2023-01-09T11:30:26.418Z,8.70
2023-01-09T11:32:57.974Z,8.90
2023-01-09T11:35:33.752Z,8.90
2023-01-09T11:38:09.031Z,8.90
2023-01-09T11:40:47.208Z,8.90
2023-01-09T11:43:19.953Z,8.90
2023-01-09T11:46:00.689Z,8.90
2023-01-09T11:48:38.200Z,8.90
2023-01-09T11:51:18.594Z,8.80
2023-01-09T11:54:17.031Z,8.90
2023-01-09T11:56:46.111Z,9.00
2023-01-09T11:59:16.307Z,8.90
2023-01-09T12:02:11.705Z,9.00
2023-01-09T12:04:49.537Z,9.00
2023-01-09T12:07:53.888Z,9.00
2023-01-09T12:10:48.514Z,9.00
2023-01-09T12:13:30.079Z,9.00
2023-01-09T12:16:09.597Z,9.10
2023-01-09T12:18:51.451Z,9.30
2023-01-09T12:21:34.483Z,9.40
2023-01-09T12:24:36.643Z,9.70
2023-01-09T12:27:21.300Z,9.80
2023-01-09T12:30:28.103Z,9.80
2023-01-09T12:33:10.903Z,10.10
2023-01-09T12:35:45.598Z,10.30
2023-01-09T12:38:33.301Z,10.10
2023-01-09T12:41:32.185Z,9.70
2023-01-09T12:44:34.123Z,9.70
2023-01-09T12:47:22.607Z,10.10
2023-01-09T12:50:01.146Z,10.00
2023-01-09T12:52:35.888Z,9.70
2023-01-09T12:55:14.275Z,9.60
2023-01-09T12:57:45.886Z,9.60
2023-01-09T13:00:19.935Z,9.40
2023-01-09T13:03:07.251Z,9.40
2023-01-09T13:05:45.663Z,9.30
2023-01-09T13:08:19.349Z,9.30
2023-01-09T13:10:51.320Z,9.20
2023-01-09T13:13:23.749Z,9.20
2023-01-09T13:15:56.057Z,9.10
2023-01-09T13:18:30.261Z,9.20
2023-01-09T13:20:58.893Z,9.50
2023-01-09T13:23:36.857Z,9.90
2023-01-09T13:26:10.515Z,10.20
2023-01-09T13:28:43.754Z,10.30
2023-01-09T13:31:29.033Z,10.40
2023-01-09T13:33:59.419Z,10.10
2023-01-09T13:36:30.324Z,9.90
2023-01-09T13:39:00.365Z,9.60
2023-01-09T13:41:49.614Z,9.50
2023-01-09T13:44:28.910Z,9.10
2023-01-09T13:47:00.262Z,8.80
2023-01-09T13:49:33.854Z,8.40
2023-01-09T13:52:05.397Z,8.20
2023-01-09T13:55:02.548Z,8.10
2023-01-09T13:57:35.123Z,8.10
2023-01-09T14:00:44.362Z,8.20
2023-01-09T14:03:20.839Z,8.20
2023-01-09T14:06:18.696Z,8.30
2023-01-09T14:08:50.513Z,8.20
2023-01-09T14:11:22.357Z,8.20
2023-01-09T14:14:06.194Z,8.10
2023-01-09T14:16:36.734Z,8.00
2023-01-09T14:19:22.228Z,7.90
2023-01-09T14:21:54.490Z,7.90
2023-01-09T14:24:27.201Z,7.90
2023-01-09T14:26:57.994Z,8.10
2023-01-09T14:29:43.808Z,8.10
2023-01-09T14:32:47.305Z,8.10
2023-01-09T14:35:20.944Z,8.10
2023-01-09T14:38:05.964Z,8.20
2023-01-09T14:40:37.087Z,8.20
2023-01-09T14:43:14.337Z,8.20
2023-01-09T14:45:49.772Z,8.20
2023-01-09T14:48:19.502Z,8.10
2023-01-09T14:50:55.357Z,8.10
2023-01-09T14:53:27.540Z,8.00
2023-01-09T14:55:57.983Z,8.00
2023-01-09T14:58:28.142Z,8.00
2023-01-09T15:01:02.558Z,7.90
2023-01-09T15:03:36.045Z,7.90
2023-01-09T15:06:05.747Z,7.70
2023-01-09T15:08:34.433Z,7.60
2023-01-09T15:11:03.031Z,7.60
2023-01-09T15:13:36.354Z,7.60
2023-01-09T15:16:08.345Z,7.60
2023-01-09T15:18:43.214Z,7.50
2023-01-09T15:21:19.932Z,7.50
2023-01-09T15:23:48.690Z,7.50
2023-01-09T15:26:26.535Z,7.50
2023-01-09T15:29:03.698Z,7.50
2023-01-09T15:31:34.037Z,7.50
2023-01-09T15:34:05.656Z,7.50
2023-01-09T15:36:34.489Z,7.50
2023-01-09T15:39:04.349Z,7.60
2023-01-09T15:41:51.401Z,7.50
2023-01-09T15:44:24.087Z,7.50
2023-01-09T15:46:57.920Z,7.50
2023-01-09T15:49:26.837Z,7.50
2023-01-09T15:51:56.042Z,7.50
2023-01-09T15:54:30.602Z,7.50
2023-01-09T15:57:35.604Z,7.50
2023-01-09T16:00:44.046Z,7.50
2023-01-09T16:03:21.424Z,7.50
2023-01-09T16:06:05.524Z,7.50
2023-01-09T16:08:36.962Z,7.50
2023-01-09T16:11:10.522Z,7.60
2023-01-09T16:13:45.864Z,7.50
2023-01-09T16:16:14.982Z,7.50
2023-01-09T16:18:54.033Z,7.60
2023-01-09T16:21:32.538Z,7.60
2023-01-09T16:24:03.732Z,7.60
2023-01-09T16:26:33.033Z,7.50
2023-01-09T16:29:35.080Z,7.60
2023-01-09T16:32:05.476Z,7.60
2023-01-09T16:34:37.153Z,7.60
2023-01-09T16:37:06.693Z,7.60
2023-01-09T16:39:35.192Z,7.60
2023-01-09T16:42:21.151Z,7.60
2023-01-09T16:44:49.903Z,7.60
2023-01-09T16:47:18.398Z,7.60
2023-01-09T16:49:48.161Z,7.60
2023-01-09T16:52:17.974Z,7.60
2023-01-09T16:54:47.583Z,7.70
2023-01-09T16:57:19.263Z,7.70
2023-01-09T16:59:48.239Z,7.80
2023-01-09T17:02:19.882Z,7.80
2023-01-09T17:04:50.237Z,7.80
2023-01-09T17:07:20.177Z,7.80
2023-01-09T17:09:48.641Z,7.80
2023-01-09T17:12:19.928Z,7.80
2023-01-09T17:14:48.402Z,7.80
2023-01-09T17:17:17.763Z,7.80
2023-01-09T17:19:46.899Z,7.80
2023-01-09T17:22:16.893Z,7.80
2023-01-09T17:25:02.475Z,7.70
2023-01-09T17:27:52.311Z,7.60
2023-01-09T17:30:21.124Z,7.60
2023-01-09T17:32:50.238Z,7.50
2023-01-09T17:35:18.960Z,7.40
2023-01-09T17:37:48.692Z,7.40
2023-01-09T17:40:21.030Z,7.50
2023-01-09T17:42:49.472Z,7.50
2023-01-09T17:45:18.283Z,7.60
2023-01-09T17:47:46.575Z,7.60
2023-01-09T17:50:20.506Z,7.60
2023-01-09T17:52:51.051Z,7.60
2023-01-09T17:55:19.536Z,7.40
2023-01-09T17:57:47.959Z,7.40
2023-01-09T18:00:26.627Z,7.30
2023-01-09T18:02:55.049Z,7.10
2023-01-09T18:05:24.137Z,7.10
2023-01-09T18:07:54.243Z,7.10
2023-01-09T18:10:25.664Z,7.00
2023-01-09T18:12:55.270Z,6.90
2023-01-09T18:15:24.594Z,6.90
2023-01-09T18:17:53.586Z,6.90
2023-01-09T18:20:22.004Z,6.90
2023-01-09T18:22:50.357Z,6.90
2023-01-09T18:25:20.321Z,6.80
2023-01-09T18:27:48.810Z,6.70
2023-01-09T18:30:17.348Z,6.70
2023-01-09T18:32:45.747Z,6.70
2023-01-09T18:35:16.212Z,6.60
2023-01-09T18:37:44.537Z,6.60
2023-01-09T18:40:13.645Z,6.60
2023-01-09T18:42:45.392Z,6.50
2023-01-09T18:45:13.833Z,6.50
2023-01-09T18:47:42.244Z,6.50
2023-01-09T18:50:12.213Z,6.50
2023-01-09T18:52:40.636Z,6.50
2023-01-09T18:55:09.975Z,6.50
2023-01-09T18:57:38.417Z,6.60
2023-01-09T19:00:11.575Z,6.90
2023-01-09T19:02:40.390Z,7.10
2023-01-09T19:05:09.250Z,7.20
2023-01-09T19:07:37.761Z,7.10
2023-01-09T19:10:07.124Z,6.90
2023-01-09T19:12:35.570Z,6.80
2023-01-09T19:15:07.471Z,6.70
2023-01-09T19:17:37.169Z,6.50
2023-01-09T19:20:07.399Z,6.30
2023-01-09T19:22:35.780Z,6.30
2023-01-09T19:25:04.161Z,6.40
2023-01-09T19:27:32.583Z,6.50
2023-01-09T19:30:01.036Z,6.60
2023-01-09T19:32:29.432Z,6.60
2023-01-09T19:34:59.269Z,6.70
2023-01-09T19:37:27.824Z,6.60
2023-01-09T19:39:56.181Z,6.60
2023-01-09T19:42:24.719Z,6.60
2023-01-09T19:44:53.247Z,6.60
2023-01-09T19:47:21.682Z,6.50
2023-01-09T19:49:50.399Z,6.50
2023-01-09T19:52:20.444Z,6.50
2023-01-09T19:54:48.914Z,6.60
2023-01-09T19:57:17.608Z,6.60
2023-01-09T19:59:46.032Z,6.60
2023-01-09T20:02:15.454Z,6.60
2023-01-09T20:04:43.784Z,6.50
2023-01-09T20:07:12.189Z,6.50
2023-01-09T20:09:41.850Z,6.40
2023-01-09T20:12:10.764Z,6.30
2023-01-09T20:14:39.167Z,6.30
2023-01-09T20:17:07.674Z,6.30
2023-01-09T20:19:36.075Z,6.20
2023-01-09T20:22:05.145Z,6.10
2023-01-09T20:24:33.763Z,6.10
2023-01-09T20:27:03.440Z,6.10
2023-01-09T20:29:33.136Z,6.10
2023-01-09T20:32:05.615Z,6.20
2023-01-09T20:34:34.180Z,6.20
2023-01-09T20:37:02.884Z,6.20
2023-01-09T20:39:31.244Z,6.20
2023-01-09T20:41:59.697Z,6.20
2023-01-09T20:44:29.489Z,6.20
2023-01-09T20:46:57.960Z,6.20
2023-01-09T20:49:27.391Z,6.30
2023-01-09T20:51:55.671Z,6.30
2023-01-09T20:54:24.315Z,6.40
2023-01-09T20:56:53.670Z,6.50
2023-01-09T20:59:22.395Z,6.60
2023-01-09T21:01:52.759Z,6.80
2023-01-09T21:04:21.508Z,6.90
2023-01-09T21:06:50.526Z,6.80
2023-01-09T21:09:19.289Z,6.90
2023-01-09T21:11:47.614Z,6.90
2023-01-09T21:14:15.993Z,6.80
2023-01-09T21:16:53.696Z,6.80
2023-01-09T21:19:24.222Z,6.70
2023-01-09T21:21:54.673Z,6.50
2023-01-09T21:24:23.110Z,6.40
2023-01-09T21:26:52.522Z,6.30
2023-01-09T21:29:20.939Z,6.20
2023-01-09T21:31:49.354Z,6.10
2023-01-09T21:34:20.696Z,6.00
2023-01-09T21:36:50.953Z,5.90
2023-01-09T21:39:21.506Z,5.70
2023-01-09T21:42:07.438Z,5.70
2023-01-09T21:44:53.293Z,5.60
2023-01-09T21:47:21.826Z,5.50
2023-01-09T21:49:50.512Z,5.40
2023-01-09T21:52:20.992Z,5.40
2023-01-09T21:54:49.762Z,5.40
2023-01-09T21:57:18.205Z,5.40
2023-01-09T21:59:46.548Z,5.40
2023-01-09T22:02:17.323Z,5.40
2023-01-09T22:04:48.942Z,5.60
2023-01-09T22:07:17.668Z,5.70
2023-01-09T22:09:47.418Z,5.80
2023-01-09T22:12:15.903Z,5.90
2023-01-09T22:14:44.697Z,5.90
2023-01-09T22:17:13.147Z,5.80
2023-01-09T22:19:41.780Z,5.70
2023-01-09T22:22:10.238Z,5.70
2023-01-09T22:24:38.607Z,5.70
2023-01-09T22:27:08.899Z,5.80
2023-01-09T22:29:37.325Z,5.80
2023-01-09T22:32:06.233Z,5.80
2023-01-09T22:34:34.766Z,5.80
2023-01-09T22:37:03.514Z,5.80
2023-01-09T22:39:31.978Z,5.80
2023-01-09T22:42:00.344Z,5.90
2023-01-09T22:44:30.140Z,5.90
2023-01-09T22:46:59.100Z,5.90
2023-01-09T22:49:30.216Z,6.00
2023-01-09T22:52:01.923Z,6.10
2023-01-09T22:54:30.375Z,6.20
2023-01-09T22:56:59.050Z,6.20
2023-01-09T22:59:27.524Z,6.30
2023-01-09T23:01:57.933Z,6.30
2023-01-09T23:04:26.461Z,6.30
2023-01-09T23:06:55.010Z,6.30
2023-01-09T23:09:23.549Z,6.30
2023-01-09T23:12:03.986Z,6.30
2023-01-09T23:14:35.557Z,6.30
2023-01-09T23:17:05.812Z,6.30
2023-01-09T23:19:36.427Z,6.30
2023-01-09T23:22:05.909Z,6.30
2023-01-09T23:24:34.794Z,6.40
2023-01-09T23:27:04.413Z,6.40
2023-01-09T23:29:33.036Z,6.50
2023-01-09T23:32:01.466Z,6.50
2023-01-09T23:34:31.307Z,6.60
2023-01-09T23:36:59.789Z,6.60
2023-01-09T23:39:28.235Z,6.60
2023-01-09T23:42:13.986Z,6.60
2023-01-09T23:44:42.372Z,6.70
2023-01-09T23:47:10.817Z,6.70
2023-01-09T23:49:40.646Z,6.70
2023-01-09T23:52:09.231Z,6.70
2023-01-09T23:54:37.824Z,6.70
2023-01-09T23:57:07.323Z,6.70
2023-01-09T23:59:35.935Z,6.60
